Decoded Metar for PACM (SCAMMON BAY in AK, USA) (IATA:SCM) | Meteo·Mobile Aviation Weather
aviador You're here:

PACM Decoded Metar

SCAMMON BAY in AK, USA
Report Time2019-02-22 03:46:00
UTC Time2019-02-22 03:56:09
Flight Rules mvfr MVFR
Wind150° at 14 kt
W.Decomp.*RWY 10: 11.0 kt HW 8.6 kt RCW
W.Rank150° ranks 15
Current wind is above 150° avg. (11.7)
Visibility4828 m
Phenomena:Light Snow
Mist
Clouds:Broken 014 Hf
Overcast 021 Hf
Expected CloudBase > 800 ft AGL from Temp-Dew spread
Ceiling1,400 ft
Temp-2°C (ISA -17)
Dew Point-4°C (86% RH)
AAT-9.5°C
QNH1018 hPa
Density Alt-2,178 ft
Elevation13 ft
Report Wrong Elevation
Raw Report
PACM 220346Z AUTO 15014KT 3SM -SN BR BKN014 OVC021 M02/M04 A3005
RMK AO2 SNB19 P0000 FZRANO=

Extra information for PACM:More info

Metar Taf Metar & Taf Last 4 Metars F.Rules Stats Wind Profile Meteogram Temp Stats Airport Information Weather charts Add Link Nearby VenuesMetar ALERT Operation Metar Decoded Social comments

AIRNAV info for PACM